Airfield :
LOGIN :

Register | Disclaimer

   EN    FR    IT 

 










Legend :    VFR   Marginal VFR   IFR   Intensive IFR   Very Intensive IFR
Visi :
Ceiling :
>= 8 km
>= 3000ft
5 to 8 km
1000 to 3000 ft
1500m to 5 km
500 to 1000 ft
800 to 1500m
200 to 500 ft
< 800m
< 200 ft
Symbols :   Thunderstorms  Fog  Heavy snow  Heavy precipitations  Wind > 20 kt
SIGMETs :     Misc.  Thunderstorms  Icing  Turbulence  Mountain Waves  Volcanic Ashes







- Airport Elevation : 309 ft
- IATA code : FNI
- Download approach charts


LFTW - Nîmes Garons

CURRENT METAR :
  • 211530Z AUTO 11014KT 9999 -RA FEW034/// BKN046/// BKN052/// ///TCU 18/15 Q1014 TEMPO VRB15G25KT SHRA BKN010TCU

EXPIRED METARs :
  • 211500Z AUTO 11015KT 9999 -RA FEW037/// BKN044/// OVC130/// ///TCU 18/15 Q1015 TEMPO VRB15G25KT SHRA BKN010TCU
  • 211430Z AUTO 11014KT 9999 ///TCU 18/15 Q1015 TEMPO VRB25G35KT 3000 TSRA OVC010CB
  • 211400Z AUTO 12014KT 9999 BKN027/// BKN032/// ///TCU 19/16 Q1016 TEMPO VRB25G35KT 3000 TSRA OVC010CB
  • 211330Z AUTO 12007KT 9999 -RA OVC030/// ///TCU 19/17 Q1017 TEMPO VRB25G35KT 3000 TSRA OVC010CB
  • 211300Z AUTO VRB05KT 5000 RA BR OVC032/// ///CB 19/16 Q1017 TEMPO VRB25G35KT TSRA OVC010CB

TAF TAF LFTW
Valid from the 21 at 15:00 until the 22 at 15:00 UTC


211400Z 2115/2215 12012KT 9999 BKN020
TEMPO 2115/2215 VRB15G25KT SHRA BKN010TCU
No reported NOTAMs for that airfield.



MET'MAP, your aeronautical weather chart ! - Copyright ORBIFLY December 2007 - Disclaimer

ORBIFLY MET'MAP TEAM :

Programming & Development : Alexandra Zaïnal
Concept & Development : Baudouin d'Aumeries
Co-Development & Prog : Marc-Olivier Méhu
Technical & hardware support : Manuel Goepfert

Contact : metmap@orbifly.com




SOURCES & CREDITS :

   NOAA